createdAt,value
2018-03-11T00:00:26.390Z,0
2018-03-11T00:01:28.066Z,0
2018-03-11T00:02:29.728Z,0
2018-03-11T00:03:31.377Z,0
2018-03-11T00:04:33.040Z,0
2018-03-11T00:05:34.698Z,0
2018-03-11T00:06:36.362Z,0
2018-03-11T00:07:38.007Z,0
2018-03-11T00:08:39.657Z,0
2018-03-11T00:09:41.320Z,0
2018-03-11T00:10:43.017Z,0
2018-03-11T00:11:44.671Z,0
2018-03-11T00:12:46.330Z,0
2018-03-11T00:13:47.988Z,0
2018-03-11T00:14:49.654Z,0
2018-03-11T00:15:51.296Z,0
2018-03-11T00:16:52.942Z,0
2018-03-11T00:17:54.596Z,0
2018-03-11T00:18:56.252Z,0
2018-03-11T00:19:57.897Z,0
2018-03-11T00:20:59.548Z,0
2018-03-11T00:22:01.209Z,0
2018-03-11T00:23:02.855Z,0
2018-03-11T00:24:04.511Z,0
2018-03-11T00:25:06.161Z,0
2018-03-11T00:26:07.808Z,0
2018-03-11T00:27:09.455Z,0
2018-03-11T00:28:11.110Z,0
2018-03-11T00:29:12.763Z,0
2018-03-11T00:30:14.406Z,0
2018-03-11T00:31:16.060Z,0
2018-03-11T00:32:17.719Z,0
2018-03-11T00:33:19.377Z,0
2018-03-11T00:34:21.035Z,0
2018-03-11T00:35:22.689Z,0
2018-03-11T00:36:24.344Z,0
2018-03-11T00:37:25.988Z,0
2018-03-11T00:38:27.643Z,0
2018-03-11T00:39:29.288Z,0
2018-03-11T00:40:30.937Z,0
2018-03-11T00:41:32.722Z,0
2018-03-11T00:42:34.386Z,0
2018-03-11T00:43:36.037Z,0
2018-03-11T00:44:37.691Z,0
2018-03-11T00:45:39.335Z,0
2018-03-11T00:46:40.999Z,0
2018-03-11T00:47:42.643Z,0
2018-03-11T00:48:44.296Z,0
2018-03-11T00:49:45.945Z,0
2018-03-11T00:50:47.590Z,0
2018-03-11T00:51:49.235Z,0
2018-03-11T00:52:50.891Z,0
2018-03-11T00:53:52.604Z,0
2018-03-11T00:54:54.253Z,0
2018-03-11T00:55:55.961Z,0
2018-03-11T00:56:57.609Z,0
2018-03-11T00:57:59.258Z,0
2018-03-11T00:59:00.909Z,0
2018-03-11T01:00:03.502Z,0
2018-03-11T01:01:05.165Z,0
2018-03-11T01:02:06.807Z,0
2018-03-11T01:03:08.463Z,0
2018-03-11T01:04:10.109Z,0
2018-03-11T01:05:11.761Z,0
2018-03-11T01:06:13.409Z,0
2018-03-11T01:07:15.086Z,0
2018-03-11T01:08:16.742Z,0
2018-03-11T01:09:18.407Z,0
2018-03-11T01:10:20.050Z,0
2018-03-11T01:11:21.686Z,0
2018-03-11T01:12:23.344Z,0
2018-03-11T01:13:24.994Z,0
2018-03-11T01:14:26.641Z,0
2018-03-11T01:15:28.298Z,0
2018-03-11T01:16:29.954Z,0
2018-03-11T01:17:31.601Z,0
2018-03-11T01:18:33.255Z,0
2018-03-11T01:19:34.904Z,0
2018-03-11T01:20:36.563Z,0
2018-03-11T01:21:38.296Z,0
2018-03-11T01:22:39.955Z,0
2018-03-11T01:23:41.607Z,0
2018-03-11T01:24:43.269Z,0
2018-03-11T01:25:44.919Z,0
2018-03-11T01:26:46.560Z,0
2018-03-11T01:27:48.222Z,0
2018-03-11T01:28:49.862Z,0
2018-03-11T01:29:51.509Z,0
2018-03-11T01:30:53.164Z,0
2018-03-11T01:31:54.819Z,0
2018-03-11T01:32:56.469Z,0
2018-03-11T01:33:58.118Z,0
2018-03-11T01:34:59.802Z,0
2018-03-11T01:36:01.439Z,0
2018-03-11T01:37:03.079Z,0
2018-03-11T01:38:04.722Z,0
2018-03-11T01:39:06.389Z,0
2018-03-11T01:40:08.036Z,0
2018-03-11T01:41:09.881Z,0
2018-03-11T01:42:11.527Z,0
2018-03-11T01:43:13.179Z,0
2018-03-11T01:44:14.825Z,0
2018-03-11T01:45:16.478Z,0
2018-03-11T01:46:18.134Z,0
2018-03-11T01:47:19.785Z,0
2018-03-11T01:48:21.438Z,0
2018-03-11T01:49:23.089Z,0
2018-03-11T01:50:24.742Z,0
2018-03-11T01:51:26.406Z,0
2018-03-11T01:52:28.056Z,0
2018-03-11T01:53:29.693Z,0
2018-03-11T01:54:31.343Z,0
2018-03-11T01:55:32.996Z,0
2018-03-11T01:56:34.650Z,0
2018-03-11T01:57:36.293Z,0
2018-03-11T01:58:37.951Z,0
2018-03-11T01:59:39.607Z,0
2018-03-11T02:00:41.262Z,0
2018-03-11T02:01:42.914Z,0
2018-03-11T02:02:44.554Z,0
2018-03-11T02:03:46.204Z,0
2018-03-11T02:04:47.850Z,0
2018-03-11T02:05:49.507Z,0
2018-03-11T02:06:51.156Z,0
2018-03-11T02:07:52.823Z,0
2018-03-11T02:08:54.487Z,0
2018-03-11T02:09:56.141Z,0
2018-03-11T02:10:57.808Z,0
2018-03-11T02:11:59.458Z,0
2018-03-11T02:13:01.110Z,0
2018-03-11T02:14:02.763Z,0
2018-03-11T02:15:04.417Z,0
2018-03-11T02:16:06.075Z,0
2018-03-11T02:17:07.745Z,0
2018-03-11T02:18:09.393Z,0
2018-03-11T02:19:11.038Z,0
2018-03-11T02:20:12.683Z,0
2018-03-11T02:21:14.335Z,0
2018-03-11T02:22:15.993Z,0
2018-03-11T02:23:17.638Z,0
2018-03-11T02:24:19.284Z,0
2018-03-11T02:25:20.944Z,0
2018-03-11T02:26:22.588Z,0
2018-03-11T02:27:24.236Z,0
2018-03-11T02:28:25.882Z,0
2018-03-11T02:29:27.528Z,0
2018-03-11T02:30:29.179Z,0
2018-03-11T02:31:30.832Z,0
2018-03-11T02:32:32.488Z,0
2018-03-11T02:33:34.133Z,0
2018-03-11T02:34:35.784Z,0
2018-03-11T02:35:37.430Z,0
2018-03-11T02:36:39.085Z,0
2018-03-11T02:37:40.751Z,0
2018-03-11T02:38:42.458Z,0
2018-03-11T02:39:44.105Z,0
2018-03-11T02:40:45.760Z,0
2018-03-11T02:41:47.412Z,0
2018-03-11T02:42:49.061Z,0
2018-03-11T02:43:50.714Z,0
2018-03-11T02:44:52.358Z,0
2018-03-11T02:45:54.011Z,0
2018-03-11T02:46:55.668Z,0
2018-03-11T02:47:57.326Z,0
2018-03-11T02:48:58.982Z,0
2018-03-11T02:50:00.640Z,0
2018-03-11T02:51:02.304Z,0
2018-03-11T02:52:03.970Z,0
2018-03-11T02:53:05.606Z,0
2018-03-11T02:54:07.263Z,0
2018-03-11T02:55:08.907Z,0
2018-03-11T03:01:23.843Z,0
2018-03-11T03:02:25.497Z,0
2018-03-11T03:03:27.144Z,0
2018-03-11T03:04:28.790Z,0
2018-03-11T03:05:30.442Z,0
2018-03-11T03:06:32.087Z,0
2018-03-11T03:07:33.740Z,0
2018-03-11T03:08:35.383Z,0
2018-03-11T03:09:37.028Z,0
2018-03-11T03:10:38.676Z,0
2018-03-11T03:11:40.319Z,0
2018-03-11T03:12:41.970Z,0
2018-03-11T03:13:43.622Z,0
2018-03-11T03:14:45.271Z,0
2018-03-11T03:15:46.922Z,0
2018-03-11T03:16:48.572Z,0
2018-03-11T03:17:50.215Z,0
2018-03-11T03:18:51.868Z,0
2018-03-11T03:19:53.520Z,0
2018-03-11T03:20:55.187Z,0
2018-03-11T03:21:56.840Z,0
2018-03-11T03:22:58.490Z,0
2018-03-11T03:24:00.139Z,0
2018-03-11T03:25:01.792Z,0
2018-03-11T03:26:03.440Z,0
2018-03-11T03:27:05.097Z,0
2018-03-11T03:28:06.743Z,0
2018-03-11T03:29:08.398Z,0
2018-03-11T03:30:10.053Z,0
2018-03-11T03:31:11.745Z,0
2018-03-11T03:32:13.402Z,0
2018-03-11T03:33:15.045Z,0
2018-03-11T03:34:16.704Z,0
2018-03-11T03:35:18.360Z,0
2018-03-11T03:36:20.013Z,0
2018-03-11T03:37:21.661Z,0
2018-03-11T03:38:23.314Z,0
2018-03-11T03:39:24.973Z,0
2018-03-11T03:40:26.625Z,0
2018-03-11T03:41:28.273Z,0
2018-03-11T03:42:29.927Z,0
2018-03-11T03:43:31.581Z,0
2018-03-11T03:44:33.225Z,0
2018-03-11T03:45:34.871Z,0
2018-03-11T03:46:36.526Z,0
2018-03-11T03:47:38.167Z,0
2018-03-11T03:48:39.821Z,0
2018-03-11T03:49:41.485Z,0
2018-03-11T03:50:43.141Z,0
2018-03-11T03:51:44.794Z,0
2018-03-11T03:52:46.450Z,0
2018-03-11T03:53:48.097Z,0
2018-03-11T03:54:49.743Z,0
2018-03-11T03:55:51.385Z,0
2018-03-11T03:56:53.046Z,0
2018-03-11T03:57:54.693Z,0
2018-03-11T03:58:56.346Z,0
2018-03-11T03:59:58.003Z,0
2018-03-11T04:00:59.641Z,0
2018-03-11T04:02:01.291Z,0
2018-03-11T04:03:02.957Z,0
2018-03-11T04:04:04.639Z,0
2018-03-11T04:05:06.294Z,0
2018-03-11T04:06:07.944Z,0
2018-03-11T04:07:09.589Z,0
2018-03-11T04:08:11.238Z,0
2018-03-11T04:09:12.878Z,0
2018-03-11T04:10:14.541Z,0
2018-03-11T04:11:16.187Z,0
2018-03-11T04:12:17.839Z,0
2018-03-11T04:13:19.488Z,0
2018-03-11T04:14:21.133Z,0
2018-03-11T04:15:22.780Z,0
2018-03-11T04:16:24.430Z,0
2018-03-11T04:17:26.080Z,0
2018-03-11T04:18:27.737Z,0
2018-03-11T04:19:29.398Z,0
2018-03-11T04:20:31.057Z,0
2018-03-11T04:21:32.701Z,0
2018-03-11T04:22:34.350Z,0
2018-03-11T04:23:35.999Z,0
2018-03-11T04:24:37.641Z,0
2018-03-11T04:25:39.299Z,0
2018-03-11T04:26:40.947Z,0
2018-03-11T04:27:42.602Z,0
2018-03-11T04:28:44.259Z,0
2018-03-11T04:29:45.909Z,0
2018-03-11T04:30:47.557Z,0
2018-03-11T04:31:49.258Z,0
2018-03-11T04:32:50.906Z,0
2018-03-11T04:33:52.562Z,0
2018-03-11T04:34:54.211Z,0
2018-03-11T04:35:55.850Z,0
2018-03-11T04:36:57.501Z,0
2018-03-11T04:37:59.153Z,0
2018-03-11T04:39:00.803Z,0
2018-03-11T04:40:02.462Z,0
2018-03-11T04:41:04.108Z,0
2018-03-11T04:42:05.761Z,0
2018-03-11T04:43:07.422Z,0
2018-03-11T04:44:09.067Z,0
2018-03-11T04:45:10.719Z,0
2018-03-11T04:46:12.374Z,0
2018-03-11T04:47:14.045Z,0
2018-03-11T04:48:15.697Z,0
2018-03-11T04:49:17.350Z,0
2018-03-11T04:50:19.006Z,0
2018-03-11T04:51:20.661Z,0
2018-03-11T04:52:22.313Z,0
2018-03-11T04:53:23.963Z,0
2018-03-11T04:54:25.618Z,0
2018-03-11T04:55:27.268Z,0
2018-03-11T04:56:28.919Z,0
2018-03-11T04:57:30.573Z,0
2018-03-11T04:58:32.230Z,0
2018-03-11T04:59:33.865Z,0
2018-03-11T05:00:35.533Z,0
2018-03-11T05:01:37.192Z,0
2018-03-11T05:02:38.842Z,0
2018-03-11T05:03:40.492Z,0
2018-03-11T05:04:42.144Z,0
2018-03-11T05:05:43.799Z,0
2018-03-11T05:06:45.449Z,0
2018-03-11T05:07:47.099Z,0
2018-03-11T05:08:48.745Z,0
2018-03-11T05:09:50.413Z,0
2018-03-11T05:10:52.066Z,0
2018-03-11T05:11:53.718Z,0
2018-03-11T05:12:55.367Z,0
2018-03-11T05:13:57.012Z,0
2018-03-11T05:14:58.676Z,0
2018-03-11T05:16:00.328Z,0
2018-03-11T05:17:01.978Z,0
2018-03-11T05:18:03.638Z,0
2018-03-11T05:19:05.286Z,0
2018-03-11T05:20:06.943Z,0
2018-03-11T05:21:08.593Z,0
2018-03-11T05:22:10.234Z,0
2018-03-11T05:23:11.886Z,4
2018-03-11T05:24:13.555Z,4
2018-03-11T05:25:15.243Z,0
2018-03-11T05:26:16.895Z,4
2018-03-11T05:27:18.546Z,4
2018-03-11T05:28:20.199Z,4
2018-03-11T05:29:21.857Z,8
2018-03-11T05:30:23.512Z,8
2018-03-11T05:31:25.165Z,12
2018-03-11T05:32:26.823Z,16
2018-03-11T05:33:28.474Z,16
2018-03-11T05:34:30.119Z,20
2018-03-11T05:35:31.766Z,24
2018-03-11T05:36:33.423Z,24
2018-03-11T05:37:35.082Z,28
2018-03-11T05:38:36.734Z,40
2018-03-11T05:39:38.385Z,48
2018-03-11T05:40:40.034Z,56
2018-03-11T05:41:41.689Z,60
2018-03-11T05:42:43.336Z,64
2018-03-11T05:43:44.986Z,68
2018-03-11T05:44:46.642Z,80
2018-03-11T05:45:48.300Z,84
2018-03-11T05:46:49.959Z,88
2018-03-11T05:47:51.609Z,100
2018-03-11T05:48:53.270Z,112
2018-03-11T05:49:54.924Z,124
2018-03-11T05:50:56.584Z,144
2018-03-11T05:51:58.243Z,164
2018-03-11T05:52:59.889Z,172
2018-03-11T05:54:01.551Z,176
2018-03-11T05:55:03.210Z,200
2018-03-11T05:56:04.866Z,216
2018-03-11T05:57:06.524Z,256
2018-03-11T05:58:08.184Z,284
2018-03-11T05:59:09.842Z,312
2018-03-11T06:00:11.493Z,352
2018-03-11T06:01:13.153Z,408
2018-03-11T06:02:14.813Z,436
2018-03-11T06:03:16.468Z,508
2018-03-11T06:04:18.134Z,572
2018-03-11T06:05:19.779Z,616
2018-03-11T06:06:21.436Z,660
2018-03-11T06:07:23.096Z,760
2018-03-11T06:08:24.830Z,768
2018-03-11T06:09:26.486Z,796
2018-03-11T06:10:28.140Z,824
2018-03-11T06:11:29.796Z,916
2018-03-11T06:12:31.467Z,976
2018-03-11T06:13:33.127Z,1124
2018-03-11T06:14:34.817Z,1204
2018-03-11T06:15:36.483Z,1212
2018-03-11T06:16:38.157Z,1160
2018-03-11T06:17:39.807Z,1168
2018-03-11T06:18:41.463Z,1160
2018-03-11T06:19:43.120Z,1228
2018-03-11T06:20:44.774Z,1184
2018-03-11T06:21:46.446Z,1204
2018-03-11T06:22:48.105Z,1228
2018-03-11T06:23:49.788Z,1300
2018-03-11T06:24:51.426Z,1384
2018-03-11T06:25:53.088Z,1548
2018-03-11T06:26:54.756Z,1740
2018-03-11T06:27:56.401Z,1764
2018-03-11T06:28:58.055Z,1780
2018-03-11T06:29:59.709Z,1700
2018-03-11T06:31:01.370Z,1768
2018-03-11T06:32:03.024Z,1840
2018-03-11T06:33:04.695Z,1936
2018-03-11T06:34:06.347Z,2088
2018-03-11T06:35:07.995Z,2432
2018-03-11T06:36:09.657Z,2472
2018-03-11T06:37:11.315Z,2600
2018-03-11T06:38:12.973Z,2520
2018-03-11T06:39:14.633Z,2672
2018-03-11T06:40:16.300Z,3108
2018-03-11T06:41:17.958Z,3264
2018-03-11T06:42:19.623Z,3548
2018-03-11T06:43:21.288Z,3432
2018-03-11T06:44:22.967Z,3096
2018-03-11T06:45:24.627Z,2916
2018-03-11T06:46:26.276Z,2832
2018-03-11T06:47:27.933Z,2864
2018-03-11T06:48:29.601Z,2640
2018-03-11T06:49:31.254Z,2648
2018-03-11T06:50:32.913Z,2428
2018-03-11T06:51:34.582Z,2416
2018-03-11T06:52:36.243Z,2312
2018-03-11T06:53:37.898Z,2352
2018-03-11T06:54:39.550Z,2464
2018-03-11T06:55:41.224Z,2508
2018-03-11T06:56:42.873Z,2396
2018-03-11T06:57:44.522Z,2488
2018-03-11T06:58:46.192Z,2456
2018-03-11T06:59:47.847Z,2288
2018-03-11T07:00:49.505Z,2340
2018-03-11T07:01:51.162Z,2448
2018-03-11T07:02:52.829Z,2304
2018-03-11T07:03:54.495Z,2276
2018-03-11T07:04:56.151Z,2312
2018-03-11T07:05:57.809Z,2324
2018-03-11T07:06:59.462Z,2396
2018-03-11T07:08:01.127Z,2412
2018-03-11T07:09:02.775Z,2328
2018-03-11T07:10:04.435Z,2288
2018-03-11T07:11:06.088Z,2264
2018-03-11T07:12:07.738Z,2484
2018-03-11T07:13:09.396Z,3088
2018-03-11T07:14:11.057Z,3440
2018-03-11T07:15:12.752Z,3516
2018-03-11T07:16:14.409Z,3608
2018-03-11T07:17:16.070Z,3924
2018-03-11T07:18:17.728Z,4184
2018-03-11T07:19:19.390Z,4436
2018-03-11T07:20:21.068Z,4372
2018-03-11T07:21:22.723Z,4208
2018-03-11T07:22:24.372Z,4416
2018-03-11T07:23:26.037Z,4524
2018-03-11T07:24:27.754Z,4712
2018-03-11T07:25:29.427Z,4372
2018-03-11T07:26:31.085Z,4152
2018-03-11T07:27:32.751Z,3932
2018-03-11T07:28:34.406Z,3572
2018-03-11T07:29:36.061Z,3132
2018-03-11T07:30:37.727Z,2892
2018-03-11T07:31:39.380Z,2852
2018-03-11T07:32:41.040Z,2884
2018-03-11T07:33:42.696Z,2976
2018-03-11T07:34:44.358Z,3156
2018-03-11T07:35:46.011Z,3372
2018-03-11T07:36:47.676Z,3484
2018-03-11T07:37:49.335Z,3488
2018-03-11T07:38:50.998Z,3568
2018-03-11T07:39:52.663Z,3232
2018-03-11T07:40:54.329Z,3316
2018-03-11T07:41:55.991Z,3176
2018-03-11T07:42:57.643Z,3404
2018-03-11T07:43:59.305Z,3652
2018-03-11T07:45:00.977Z,3624
2018-03-11T07:46:02.677Z,4576
2018-03-11T07:47:04.344Z,4504
2018-03-11T07:48:05.993Z,4276
2018-03-11T07:49:07.655Z,4760
2018-03-11T07:50:09.314Z,5928
2018-03-11T07:51:10.973Z,6736
2018-03-11T07:52:12.632Z,6256
2018-03-11T07:53:14.299Z,6236
2018-03-11T07:54:15.948Z,7840
2018-03-11T07:55:17.643Z,7836
2018-03-11T07:56:19.271Z,7024
2018-03-11T07:57:20.933Z,7160
2018-03-11T07:58:22.593Z,8072
2018-03-11T07:59:24.264Z,7984
2018-03-11T08:00:25.915Z,8064
2018-03-11T08:01:27.582Z,9056
2018-03-11T08:02:29.253Z,7080
2018-03-11T08:03:30.901Z,6304
2018-03-11T08:04:32.557Z,7476
2018-03-11T08:05:34.213Z,6896
2018-03-11T08:06:35.883Z,7028
2018-03-11T08:07:37.530Z,6440
2018-03-11T08:08:39.187Z,5792
2018-03-11T08:09:40.861Z,5588
2018-03-11T08:10:42.524Z,4944
2018-03-11T08:11:44.192Z,5640
2018-03-11T08:12:45.853Z,5464
2018-03-11T08:13:47.517Z,4672
2018-03-11T08:14:49.187Z,3768
2018-03-11T08:15:50.846Z,3480
2018-03-11T08:16:52.502Z,3540
2018-03-11T08:17:54.167Z,2860
2018-03-11T08:18:55.829Z,3276
2018-03-11T08:19:57.492Z,3228
2018-03-11T08:20:59.149Z,3468
2018-03-11T08:22:00.803Z,3492
2018-03-11T08:23:02.461Z,3556
2018-03-11T08:24:04.123Z,3032
2018-03-11T08:25:05.796Z,3220
2018-03-11T08:26:07.448Z,3512
2018-03-11T08:27:09.120Z,4136
2018-03-11T08:28:10.780Z,4608
2018-03-11T08:29:12.444Z,5064
2018-03-11T08:30:14.109Z,5080
2018-03-11T08:31:15.852Z,5520
2018-03-11T08:32:17.846Z,6200
2018-03-11T08:33:19.458Z,7444
2018-03-11T08:34:21.113Z,8056
2018-03-11T08:35:22.771Z,8532
2018-03-11T08:36:24.458Z,8488
2018-03-11T08:37:26.151Z,7452
2018-03-11T08:38:27.815Z,6160
2018-03-11T08:39:29.496Z,5004
2018-03-11T08:40:31.154Z,4684
2018-03-11T08:41:32.811Z,4488
2018-03-11T08:42:34.490Z,4472
2018-03-11T08:43:36.142Z,4936
2018-03-11T08:44:38.185Z,5616
2018-03-11T08:45:41.343Z,6216
2018-03-11T08:46:42.990Z,6524
2018-03-11T08:47:44.647Z,6432
2018-03-11T08:48:46.392Z,6572
2018-03-11T08:49:48.032Z,8412
2018-03-11T08:50:49.696Z,11156
2018-03-11T08:51:51.355Z,12584
2018-03-11T08:52:53.035Z,15424
2018-03-11T08:53:54.745Z,20896
2018-03-11T08:54:56.355Z,25024
2018-03-11T08:55:58.017Z,15932
2018-03-11T08:56:59.944Z,11940
2018-03-11T08:58:01.616Z,10420
2018-03-11T08:59:03.319Z,11020
2018-03-11T09:00:04.960Z,12744
2018-03-11T09:01:06.634Z,15384
2018-03-11T09:02:08.300Z,17088
2018-03-11T09:03:09.969Z,15564
2018-03-11T09:04:11.644Z,12420
2018-03-11T09:05:13.307Z,12088
2018-03-11T09:06:14.971Z,12880
2018-03-11T09:07:16.628Z,12256
2018-03-11T09:08:18.296Z,11608
2018-03-11T09:09:19.957Z,11732
2018-03-11T09:10:21.657Z,11988
2018-03-11T09:11:23.296Z,12492
2018-03-11T09:12:24.963Z,14168
2018-03-11T09:13:26.619Z,15888
2018-03-11T09:14:28.414Z,17856
2018-03-11T09:15:30.037Z,18144
2018-03-11T09:16:31.698Z,20448
2018-03-11T09:17:33.367Z,16924
2018-03-11T09:18:35.044Z,15536
2018-03-11T09:19:36.714Z,16628
2018-03-11T09:20:38.368Z,17856
2018-03-11T09:21:40.077Z,18880
2018-03-11T09:22:41.706Z,18368
2018-03-11T09:23:43.377Z,16156
2018-03-11T09:24:45.051Z,13088
2018-03-11T09:25:46.710Z,12996
2018-03-11T09:26:49.483Z,12136
2018-03-11T09:27:51.133Z,10520
2018-03-11T09:28:52.807Z,10640
2018-03-11T09:29:54.483Z,10508
2018-03-11T09:31:01.949Z,10040
2018-03-11T09:32:06.845Z,9740
2018-03-11T09:33:08.483Z,8660
2018-03-11T09:34:10.155Z,7604
2018-03-11T09:35:13.368Z,6904
2018-03-11T09:36:14.962Z,6348
2018-03-11T09:37:16.754Z,6148
2018-03-11T09:38:18.418Z,6056
2018-03-11T09:39:20.080Z,5768
2018-03-11T09:40:21.744Z,5572
2018-03-11T09:41:23.543Z,6136
2018-03-11T09:42:25.431Z,7124
2018-03-11T09:43:27.093Z,7548
2018-03-11T09:44:28.931Z,7240
2018-03-11T09:45:30.584Z,6112
2018-03-11T09:46:32.308Z,5172
2018-03-11T09:47:33.979Z,4492
2018-03-11T09:48:35.815Z,3380
2018-03-11T09:49:37.556Z,3036
2018-03-11T09:50:39.218Z,3900
2018-03-11T09:51:40.879Z,5128
2018-03-11T09:52:42.539Z,5252
2018-03-11T09:53:44.207Z,5668
2018-03-11T09:54:45.875Z,7256
2018-03-11T09:55:47.531Z,8448
2018-03-11T09:56:49.240Z,8340
2018-03-11T09:57:50.951Z,8284
2018-03-11T09:58:52.631Z,7680
2018-03-11T09:59:54.287Z,6360
2018-03-11T10:00:55.954Z,5272
2018-03-11T10:01:57.607Z,5080
2018-03-11T10:02:59.275Z,4692
2018-03-11T10:04:00.933Z,4212
2018-03-11T10:05:02.602Z,3756
2018-03-11T10:06:04.274Z,3924
2018-03-11T10:07:05.999Z,4060
2018-03-11T10:08:07.670Z,4028
2018-03-11T10:09:09.446Z,5196
2018-03-11T10:10:11.123Z,6960
2018-03-11T10:11:12.784Z,8340
2018-03-11T10:12:14.537Z,8396
2018-03-11T10:13:16.203Z,7872
2018-03-11T10:14:17.874Z,6556
2018-03-11T10:15:19.933Z,5900
2018-03-11T10:16:21.661Z,7552
2018-03-11T10:17:23.279Z,9972
2018-03-11T10:18:24.937Z,11904
2018-03-11T10:19:26.602Z,13932
2018-03-11T10:20:28.288Z,13328
2018-03-11T10:21:29.967Z,12660
2018-03-11T10:22:31.636Z,12376
2018-03-11T10:23:33.290Z,12604
2018-03-11T10:24:34.950Z,14460
2018-03-11T10:25:36.634Z,15872
2018-03-11T10:26:38.292Z,16300
2018-03-11T10:27:39.961Z,16572
2018-03-11T10:28:41.874Z,18304
2018-03-11T10:29:43.551Z,19712
2018-03-11T10:30:45.228Z,19712
2018-03-11T10:31:46.890Z,19424
2018-03-11T10:32:48.559Z,19296
2018-03-11T10:33:50.284Z,21664
2018-03-11T10:34:52.198Z,79680
2018-03-11T10:35:53.876Z,25056
2018-03-11T10:36:55.544Z,24000
2018-03-11T10:37:57.210Z,27744
2018-03-11T10:38:58.866Z,35200
2018-03-11T10:40:00.802Z,64608
2018-03-11T10:41:02.479Z,44000
2018-03-11T10:42:05.004Z,55136
2018-03-11T10:43:06.767Z,90272
2018-03-11T10:44:08.368Z,89536
2018-03-11T10:45:10.062Z,63776
2018-03-11T10:46:12.495Z,73472
2018-03-11T10:47:14.160Z,75456
2018-03-11T10:48:15.827Z,65088
2018-03-11T10:49:17.515Z,73888
2018-03-11T10:50:19.193Z,67328
2018-03-11T10:51:21.090Z,69952
2018-03-11T10:52:23.321Z,66560
2018-03-11T10:53:24.986Z,47616
2018-03-11T10:54:26.721Z,44800
2018-03-11T10:55:28.433Z,29408
2018-03-11T11:01:43.055Z,26688
2018-03-11T11:02:44.710Z,31840
2018-03-11T11:04:56.050Z,32032
2018-03-11T11:05:57.712Z,38976
2018-03-11T11:06:59.377Z,40128
2018-03-11T11:08:01.030Z,34912
2018-03-11T11:09:02.698Z,34048
2018-03-11T11:10:04.363Z,31104
2018-03-11T11:11:06.036Z,30176
2018-03-11T11:12:07.735Z,29056
2018-03-11T11:13:09.424Z,30048
2018-03-11T11:14:11.540Z,28224
2018-03-11T11:15:13.218Z,26688
2018-03-11T11:16:14.884Z,26176
2018-03-11T11:17:16.565Z,25216
2018-03-11T11:18:18.237Z,23104
2018-03-11T11:19:19.951Z,21696
2018-03-11T11:20:45.053Z,21248
2018-03-11T11:21:46.898Z,22016
2018-03-11T11:22:48.572Z,23136
2018-03-11T11:23:50.258Z,25888
2018-03-11T11:24:51.946Z,29760
2018-03-11T11:25:53.928Z,31360
2018-03-11T11:26:55.616Z,30944
2018-03-11T11:27:57.320Z,31232
2018-03-11T11:28:58.980Z,29856
2018-03-11T11:30:01.176Z,28416
2018-03-11T11:31:02.973Z,27424
2018-03-11T11:32:04.639Z,25920
2018-03-11T11:33:06.425Z,24768
2018-03-11T11:34:08.097Z,22688
2018-03-11T11:35:09.761Z,21216
2018-03-11T11:36:11.433Z,21760
2018-03-11T11:37:13.112Z,22624
2018-03-11T11:38:14.830Z,21600
2018-03-11T11:39:19.091Z,20544
2018-03-11T11:40:20.752Z,20064
2018-03-11T11:44:14.229Z,17952
2018-03-11T11:45:15.911Z,19712
2018-03-11T11:46:17.808Z,19744
2018-03-11T11:47:19.507Z,18752
2018-03-11T11:48:21.154Z,22464
2018-03-11T11:49:22.826Z,24992
2018-03-11T11:50:24.871Z,26272
2018-03-11T11:51:26.532Z,24512
2018-03-11T11:52:28.201Z,26080
2018-03-11T11:53:29.871Z,25952
2018-03-11T11:54:31.549Z,24768
2018-03-11T11:55:33.237Z,23296
2018-03-11T11:56:34.900Z,23136
2018-03-11T11:57:36.578Z,22112
2018-03-11T11:58:38.273Z,21760
2018-03-11T11:59:40.009Z,21216
2018-03-11T12:00:41.692Z,20576
2018-03-11T12:01:43.339Z,20000
2018-03-11T12:02:45.014Z,19520
2018-03-11T12:03:46.684Z,18880
2018-03-11T12:04:48.348Z,18176
2018-03-11T12:05:50.016Z,18048
2018-03-11T12:06:51.689Z,17140
2018-03-11T12:07:53.353Z,15848
2018-03-11T12:08:55.022Z,15472
2018-03-11T12:09:56.714Z,14768
2018-03-11T12:10:58.378Z,13652
2018-03-11T12:12:00.047Z,12944
2018-03-11T12:13:01.704Z,12660
2018-03-11T12:14:03.469Z,12484
2018-03-11T12:15:05.225Z,12412
2018-03-11T12:16:08.706Z,12616
2018-03-11T12:17:10.167Z,12348
2018-03-11T12:18:11.842Z,11716
2018-03-11T12:19:15.068Z,11872
2018-03-11T12:20:18.094Z,12204
2018-03-11T12:21:22.647Z,12152
2018-03-11T12:22:24.765Z,12292
2018-03-11T12:23:26.613Z,12152
2018-03-11T12:24:28.496Z,11948
2018-03-11T12:25:30.384Z,11652
2018-03-11T12:26:32.260Z,11808
2018-03-11T12:27:34.076Z,11932
2018-03-11T12:28:35.911Z,12044
2018-03-11T12:29:37.814Z,12160
2018-03-11T12:30:39.679Z,12304
2018-03-11T12:31:41.579Z,12456
2018-03-11T12:32:43.580Z,12368
2018-03-11T12:33:45.459Z,12048
2018-03-11T12:34:47.250Z,11984
2018-03-11T12:35:49.129Z,11892
2018-03-11T12:36:50.895Z,11980
2018-03-11T12:37:52.604Z,12000
2018-03-11T12:38:54.466Z,11812
2018-03-11T12:39:56.349Z,11644
2018-03-11T12:40:58.237Z,11672
2018-03-11T12:42:00.028Z,11952
2018-03-11T12:43:02.311Z,12316
2018-03-11T12:44:04.192Z,12616
2018-03-11T12:45:06.075Z,12940
2018-03-11T12:46:08.095Z,13480
2018-03-11T12:47:09.982Z,14264
2018-03-11T12:48:11.811Z,15072
2018-03-11T12:49:13.794Z,15748
2018-03-11T12:50:15.820Z,16200
2018-03-11T12:51:17.754Z,16580
2018-03-11T12:52:19.611Z,17008
2018-03-11T12:53:21.411Z,17824
2018-03-11T12:54:23.318Z,18752
2018-03-11T12:55:25.247Z,19840
2018-03-11T12:56:27.150Z,21184
2018-03-11T12:57:28.984Z,22016
2018-03-11T12:58:30.876Z,21856
2018-03-11T12:59:32.812Z,21024
2018-03-11T13:00:34.744Z,20160
2018-03-11T13:01:36.623Z,19264
2018-03-11T13:02:38.485Z,19072
2018-03-11T13:03:40.338Z,18816
2018-03-11T13:04:42.220Z,19584
2018-03-11T13:05:44.054Z,21120
2018-03-11T13:06:45.970Z,22368
2018-03-11T13:07:47.875Z,22112
2018-03-11T13:08:49.758Z,20960
2018-03-11T13:09:51.651Z,19392
2018-03-11T13:10:53.616Z,18976
2018-03-11T13:11:55.515Z,19712
2018-03-11T13:12:57.316Z,21856
2018-03-11T13:13:59.196Z,23520
2018-03-11T13:15:01.129Z,23776
2018-03-11T13:16:03.203Z,22624
2018-03-11T13:17:05.071Z,20256
2018-03-11T13:18:06.977Z,17696
2018-03-11T13:19:08.834Z,15856
2018-03-11T13:20:10.676Z,14996
2018-03-11T13:21:12.563Z,14316
2018-03-11T13:22:14.470Z,13784
2018-03-11T13:23:16.397Z,12936
2018-03-11T13:24:18.142Z,12752
2018-03-11T13:25:19.900Z,12268
2018-03-11T13:26:21.624Z,11924
2018-03-11T13:27:23.410Z,11796
2018-03-11T13:28:25.171Z,11660
2018-03-11T13:29:26.908Z,11184
2018-03-11T13:30:28.635Z,10596
2018-03-11T13:31:30.380Z,9936
2018-03-11T13:32:32.070Z,9528
2018-03-11T13:33:33.893Z,9616
2018-03-11T13:34:35.571Z,9888
2018-03-11T13:35:37.248Z,10496
2018-03-11T13:36:38.938Z,12072
2018-03-11T13:37:40.617Z,14172
2018-03-11T13:38:42.280Z,16684
2018-03-11T13:39:43.949Z,19136
2018-03-11T13:40:45.622Z,19616
2018-03-11T13:41:47.302Z,18720
2018-03-11T13:42:48.956Z,17036
2018-03-11T13:43:50.626Z,15700
2018-03-11T13:44:52.290Z,14572
2018-03-11T13:45:53.961Z,13404
2018-03-11T13:46:55.622Z,12220
2018-03-11T13:47:57.288Z,11260
2018-03-11T13:48:58.949Z,10780
2018-03-11T13:50:00.621Z,10368
2018-03-11T13:51:02.288Z,10024
2018-03-11T13:52:03.944Z,10216
2018-03-11T13:53:05.615Z,10736
2018-03-11T13:54:07.283Z,11016
2018-03-11T13:55:08.959Z,11116
2018-03-11T13:56:10.617Z,11224
2018-03-11T13:57:12.288Z,11400
2018-03-11T13:58:13.951Z,11616
2018-03-11T13:59:15.615Z,11108
2018-03-11T14:00:17.288Z,10512
2018-03-11T14:01:18.953Z,11164
2018-03-11T14:02:20.620Z,12916
2018-03-11T14:03:22.282Z,14216
2018-03-11T14:04:23.985Z,14692
2018-03-11T14:05:25.608Z,15100
2018-03-11T14:06:28.030Z,15856
2018-03-11T14:07:29.697Z,16540
2018-03-11T14:08:31.354Z,16484
2018-03-11T14:09:33.037Z,15564
2018-03-11T14:10:34.680Z,14420
2018-03-11T14:11:36.345Z,13328
2018-03-11T14:12:38.005Z,12444
2018-03-11T14:13:39.674Z,11876
2018-03-11T14:14:41.338Z,11800
2018-03-11T14:15:43.008Z,12280
2018-03-11T14:16:44.669Z,13136
2018-03-11T14:17:46.832Z,14220
2018-03-11T14:18:48.487Z,15388
2018-03-11T14:19:50.168Z,16316
2018-03-11T14:20:51.821Z,16640
2018-03-11T14:21:53.489Z,16476